Time;durP1;ratioP1;P1;durP2;ratioP2;P2;SDS_P1;SDS_P2;PMS_P1;PMS_P2;Temp;Humidity;BMP_temperature;BMP_pressure;BME280_temperature;BME280_humidity;BME280_pressure;Samples;Min_cycle;Max_cycle;Signal;HPM_P1;HPM_P2
2022/01/11 00:02:20;;;;;;;17.23;7.75;;;;;;;;;;6250006;28;20048;-69
2022/01/11 00:05:30;;;;;;;21.63;8.93;;;;;;;;;;6266714;28;20052;-69
2022/01/11 00:08:39;;;;;;;17.88;7.82;;;;;;;;;;6265948;28;20297;-69
2022/01/11 00:11:44;;;;;;;18.05;8.80;;;;;;;;;;6266151;28;20052;-69
2022/01/11 00:14:49;;;;;;;16.35;7.80;;;;;;;;;;6267930;28;20514;-69
2022/01/11 00:17:52;;;;;;;19.13;8.90;;;;;;;;;;6266812;28;20064;-69
2022/01/11 00:20:57;;;;;;;19.42;8.93;;;;;;;;;;6266294;28;20082;-68
2022/01/11 00:27:23;;;;;;;16.95;8.85;;;;;;;;;;6267173;28;20071;-69
2022/01/11 00:30:31;;;;;;;19.50;7.90;;;;;;;;;;6266615;28;20049;-69
2022/01/11 00:33:40;;;;;;;18.17;8.10;;;;;;;;;;6265896;28;20048;-69
2022/01/11 00:36:43;;;;;;;19.75;8.55;;;;;;;;;;6267438;28;20587;-69
2022/01/11 00:39:46;;;;;;;18.00;7.80;;;;;;;;;;6265536;28;20079;-69
2022/01/11 00:42:49;;;;;;;17.88;7.53;;;;;;;;;;6265499;28;20496;-69
2022/01/11 00:45:54;;;;;;;20.73;7.88;;;;;;;;;;6265585;28;20052;-68
2022/01/11 00:48:57;;;;;;;17.50;7.43;;;;;;;;;;6265865;28;20579;-69
2022/01/11 00:52:02;;;;;;;19.48;8.30;;;;;;;;;;6267346;28;20052;-69
2022/01/11 00:55:05;;;;;;;18.27;7.18;;;;;;;;;;6265717;28;20059;-69
2022/01/11 00:58:08;;;;;;;18.13;7.38;;;;;;;;;;6265565;28;20506;-69
2022/01/11 01:01:12;;;;;;;20.48;11.10;;;;;;;;;;6265090;28;20045;-69
2022/01/11 01:04:15;;;;;;;85.78;33.88;;;;;;;;;;6265115;28;20110;-69
2022/01/11 01:07:18;;;;;;;18.38;8.27;;;;;;;;;;6264347;28;20037;-69
2022/01/11 01:10:26;;;;;;;16.98;7.53;;;;;;;;;;6264724;28;20052;-69
2022/01/11 01:13:31;;;;;;;17.52;7.82;;;;;;;;;;6264945;28;20045;-69
2022/01/11 01:16:41;;;;;;;20.25;7.43;;;;;;;;;;6265740;28;20194;-69
2022/01/11 01:19:55;;;;;;;17.05;7.28;;;;;;;;;;6265516;28;20495;-69
2022/01/11 01:22:58;;;;;;;17.17;7.30;;;;;;;;;;6266609;28;20045;-69
2022/01/11 01:26:02;;;;;;;17.35;7.13;;;;;;;;;;6265435;28;20475;-69
2022/01/11 01:29:07;;;;;;;14.73;6.30;;;;;;;;;;6264832;28;20045;-69
2022/01/11 01:32:11;;;;;;;15.88;7.05;;;;;;;;;;6265562;28;20100;-69
2022/01/11 01:35:14;;;;;;;17.50;7.07;;;;;;;;;;6264616;28;20040;-69
2022/01/11 01:38:21;;;;;;;17.15;7.10;;;;;;;;;;6267173;28;20146;-69
2022/01/11 01:41:27;;;;;;;15.85;6.93;;;;;;;;;;6269580;28;20060;-69
2022/01/11 01:44:32;;;;;;;16.50;7.55;;;;;;;;;;6269203;28;20057;-69
2022/01/11 01:47:37;;;;;;;15.18;6.80;;;;;;;;;;6270777;28;20052;-69
2022/01/11 01:50:40;;;;;;;14.70;6.95;;;;;;;;;;6270607;28;20045;-68
2022/01/11 01:53:44;;;;;;;15.52;7.30;;;;;;;;;;6269936;28;20041;-69
2022/01/11 01:56:47;;;;;;;15.02;7.57;;;;;;;;;;6268591;28;20055;-69
2022/01/11 01:59:50;;;;;;;15.05;6.63;;;;;;;;;;6269188;28;20388;-69
2022/01/11 02:03:02;;;;;;;17.00;7.35;;;;;;;;;;6269433;28;20079;-69
2022/01/11 02:06:06;;;;;;;15.07;6.78;;;;;;;;;;6268690;28;20045;-69
2022/01/11 02:09:11;;;;;;;16.38;7.57;;;;;;;;;;6270328;28;20519;-68
2022/01/11 02:12:14;;;;;;;17.15;7.30;;;;;;;;;;6270181;28;20095;-69
2022/01/11 02:15:19;;;;;;;17.13;6.80;;;;;;;;;;6269197;28;20049;-69
2022/01/11 02:18:27;;;;;;;17.27;7.05;;;;;;;;;;6268221;28;20503;-68
2022/01/11 02:21:39;;;;;;;15.55;6.78;;;;;;;;;;6268825;28;20068;-68
2022/01/11 02:24:42;;;;;;;15.93;6.35;;;;;;;;;;6268746;28;20055;-68
2022/01/11 02:27:45;;;;;;;16.85;6.47;;;;;;;;;;6269510;28;20103;-68
2022/01/11 02:30:49;;;;;;;15.35;6.68;;;;;;;;;;6270065;28;20581;-68
2022/01/11 02:33:56;;;;;;;15.23;6.40;;;;;;;;;;6268265;28;20071;-68
2022/01/11 02:37:06;;;;;;;20.08;7.47;;;;;;;;;;6270153;28;20049;-68
2022/01/11 02:40:16;;;;;;;14.15;5.85;;;;;;;;;;6267501;28;20052;-68
2022/01/11 02:43:19;;;;;;;17.10;6.68;;;;;;;;;;6268387;28;20053;-68
2022/01/11 02:46:22;;;;;;;14.07;6.07;;;;;;;;;;6268135;28;20048;-68
2022/01/11 02:49:28;;;;;;;13.70;6.40;;;;;;;;;;6267759;28;20049;-69
2022/01/11 02:52:43;;;;;;;15.32;6.65;;;;;;;;;;6269087;28;20403;-68
2022/01/11 02:55:46;;;;;;;14.25;5.97;;;;;;;;;;6267759;28;20060;-68
2022/01/11 02:58:50;;;;;;;14.38;6.70;;;;;;;;;;6268292;28;20133;-68
2022/01/11 03:01:55;;;;;;;12.50;5.63;;;;;;;;;;6267133;28;20042;-67
2022/01/11 03:04:58;;;;;;;17.55;6.30;;;;;;;;;;6267753;28;20041;-68
2022/01/11 03:08:04;;;;;;;13.98;6.22;;;;;;;;;;6267556;28;20052;-68
2022/01/11 03:11:11;;;;;;;12.82;5.95;;;;;;;;;;6267499;28;20033;-68
2022/01/11 03:14:14;;;;;;;12.18;5.88;;;;;;;;;;6267420;28;20044;-68
2022/01/11 03:17:20;;;;;;;14.23;6.20;;;;;;;;;;6267264;28;20065;-69
2022/01/11 03:20:23;;;;;;;11.88;5.20;;;;;;;;;;6267676;28;20546;-70
2022/01/11 03:23:28;;;;;;;14.77;6.30;;;;;;;;;;6266534;28;20056;-68
2022/01/11 03:26:31;;;;;;;19.08;6.30;;;;;;;;;;6268492;28;20506;-67
2022/01/11 03:29:37;;;;;;;13.73;5.80;;;;;;;;;;6267288;28;20458;-68
2022/01/11 03:32:44;;;;;;;15.60;6.20;;;;;;;;;;6266947;28;20515;-68
2022/01/11 03:35:52;;;;;;;14.98;5.63;;;;;;;;;;6266830;28;20056;-68
2022/01/11 03:39:00;;;;;;;14.02;5.90;;;;;;;;;;6266717;28;20127;-68
2022/01/11 03:42:06;;;;;;;14.27;5.85;;;;;;;;;;6268418;28;20057;-68
2022/01/11 03:45:10;;;;;;;13.20;5.53;;;;;;;;;;6266213;28;20041;-68
2022/01/11 03:48:15;;;;;;;14.00;6.13;;;;;;;;;;6266743;28;20052;-68
2022/01/11 03:51:18;;;;;;;15.73;6.45;;;;;;;;;;6266807;28;20075;-68
2022/01/11 03:54:30;;;;;;;13.95;5.82;;;;;;;;;;6266325;28;20476;-68
2022/01/11 03:57:47;;;;;;;15.48;6.25;;;;;;;;;;6266064;28;20045;-67
2022/01/11 04:00:51;;;;;;;15.65;6.35;;;;;;;;;;6266191;28;20483;-68
2022/01/11 04:03:55;;;;;;;15.55;6.78;;;;;;;;;;6266270;28;20055;-68
2022/01/11 04:06:59;;;;;;;14.48;6.15;;;;;;;;;;6265811;28;20048;-68
2022/01/11 04:10:05;;;;;;;13.97;5.90;;;;;;;;;;6266360;28;20095;-69
2022/01/11 04:13:08;;;;;;;15.50;6.45;;;;;;;;;;6266224;28;20056;-69
2022/01/11 04:16:13;;;;;;;14.15;6.57;;;;;;;;;;6266271;28;20048;-69
2022/01/11 04:19:16;;;;;;;15.43;5.82;;;;;;;;;;6265829;28;20111;-70
2022/01/11 04:22:21;;;;;;;16.17;6.45;;;;;;;;;;6266012;28;20056;-69
2022/01/11 04:25:25;;;;;;;13.98;6.57;;;;;;;;;;6266331;28;20045;-69
2022/01/11 04:28:31;;;;;;;13.48;5.90;;;;;;;;;;6265135;28;20053;-69
2022/01/11 04:31:35;;;;;;;14.70;5.97;;;;;;;;;;6265981;28;20041;-69
2022/01/11 04:34:42;;;;;;;13.30;5.50;;;;;;;;;;6266416;28;20552;-70
2022/01/11 04:37:46;;;;;;;12.57;6.13;;;;;;;;;;6265730;28;20056;-69
2022/01/11 04:40:52;;;;;;;12.75;5.75;;;;;;;;;;6265412;28;20503;-69
2022/01/11 04:43:56;;;;;;;13.02;6.45;;;;;;;;;;6265689;28;20047;-69
2022/01/11 04:46:59;;;;;;;15.15;6.30;;;;;;;;;;6266105;28;20060;-69
2022/01/11 04:50:05;;;;;;;16.47;6.77;;;;;;;;;;6264940;28;20495;-68
2022/01/11 04:53:08;;;;;;;15.15;6.20;;;;;;;;;;6267294;28;20049;-68
2022/01/11 04:56:13;;;;;;;14.88;6.68;;;;;;;;;;6265634;28;20048;-67
2022/01/11 04:59:16;;;;;;;12.80;6.00;;;;;;;;;;6265113;28;20056;-70
2022/01/11 05:02:19;;;;;;;14.93;6.43;;;;;;;;;;6266781;28;20049;-70
2022/01/11 05:05:26;;;;;;;15.82;6.40;;;;;;;;;;6265390;28;20106;-69
2022/01/11 05:08:28;;;;;;;15.68;6.68;;;;;;;;;;6265828;28;20124;-70
2022/01/11 05:11:33;;;;;;;18.85;7.13;;;;;;;;;;6265300;28;20079;-69
2022/01/11 05:14:36;;;;;;;25.23;10.88;;;;;;;;;;6267370;28;20408;-69
2022/01/11 05:17:40;;;;;;;20.23;8.68;;;;;;;;;;6270517;28;20048;-69
2022/01/11 05:20:45;;;;;;;18.38;8.18;;;;;;;;;;6269758;28;20056;-69
2022/01/11 05:23:48;;;;;;;20.40;9.70;;;;;;;;;;6270165;28;20056;-69
2022/01/11 05:26:54;;;;;;;21.15;8.93;;;;;;;;;;6270050;28;20130;-69
2022/01/11 05:29:58;;;;;;;18.73;8.02;;;;;;;;;;6270090;28;20408;-69
2022/01/11 05:33:02;;;;;;;17.48;7.72;;;;;;;;;;6269318;28;20049;-69
2022/01/11 05:36:06;;;;;;;16.90;7.32;;;;;;;;;;6269695;28;20041;-69
2022/01/11 05:39:10;;;;;;;16.52;7.65;;;;;;;;;;6270928;28;20080;-69
2022/01/11 05:42:15;;;;;;;18.40;8.23;;;;;;;;;;6268990;28;20049;-69
2022/01/11 05:45:18;;;;;;;20.90;8.25;;;;;;;;;;6269955;28;20546;-69
2022/01/11 05:48:24;;;;;;;18.02;7.93;;;;;;;;;;6269319;28;20431;-69
2022/01/11 05:51:27;;;;;;;19.48;8.18;;;;;;;;;;6269850;28;20049;-69
2022/01/11 05:54:32;;;;;;;16.75;7.68;;;;;;;;;;6270141;28;20041;-69
2022/01/11 05:57:37;;;;;;;15.27;6.70;;;;;;;;;;6269018;28;20049;-69
2022/01/11 06:00:41;;;;;;;18.48;7.72;;;;;;;;;;6269918;28;20068;-69
2022/01/11 06:03:44;;;;;;;19.65;8.00;;;;;;;;;;6268292;28;20080;-69
2022/01/11 06:06:47;;;;;;;17.90;7.15;;;;;;;;;;6270239;28;20045;-69
2022/01/11 06:09:50;;;;;;;18.08;7.80;;;;;;;;;;6270238;28;20488;-69
2022/01/11 06:12:55;;;;;;;17.75;7.30;;;;;;;;;;6268873;28;20056;-69
2022/01/11 06:16:00;;;;;;;17.25;7.75;;;;;;;;;;6268498;28;20056;-69
2022/01/11 06:19:06;;;;;;;23.60;7.82;;;;;;;;;;6268808;28;20045;-69
2022/01/11 06:22:18;;;;;;;20.42;8.15;;;;;;;;;;6269045;28;20107;-69
2022/01/11 06:25:21;;;;;;;19.13;7.25;;;;;;;;;;6267359;28;20041;-69
2022/01/11 06:28:26;;;;;;;19.35;8.02;;;;;;;;;;6268596;28;20090;-69
2022/01/11 06:31:30;;;;;;;14.45;5.97;;;;;;;;;;6268486;28;20045;-69
2022/01/11 06:34:33;;;;;;;17.60;7.40;;;;;;;;;;6269592;28;20087;-69
2022/01/11 06:37:37;;;;;;;20.30;7.30;;;;;;;;;;6267958;28;20051;-68
2022/01/11 06:40:43;;;;;;;17.35;6.68;;;;;;;;;;6267870;28;20057;-69
2022/01/11 06:43:49;;;;;;;20.70;7.25;;;;;;;;;;6268498;28;20045;-69
2022/01/11 06:46:52;;;;;;;23.55;8.25;;;;;;;;;;6267409;28;20548;-69
2022/01/11 06:49:55;;;;;;;19.90;6.57;;;;;;;;;;6269242;28;20099;-68
2022/01/11 06:53:00;;;;;;;18.00;7.57;;;;;;;;;;6267999;28;20064;-68
2022/01/11 06:56:08;;;;;;;19.35;6.85;;;;;;;;;;6267792;28;20052;-68
2022/01/11 06:59:13;;;;;;;17.70;7.82;;;;;;;;;;6267362;28;20407;-68
2022/01/11 07:02:17;;;;;;;22.92;8.15;;;;;;;;;;6267630;28;20056;-68
2022/01/11 07:05:32;;;;;;;25.50;7.63;;;;;;;;;;6267919;28;20056;-68
2022/01/11 07:08:36;;;;;;;32.50;7.57;;;;;;;;;;6266950;28;20044;-68
2022/01/11 07:11:41;;;;;;;16.08;6.95;;;;;;;;;;6267498;28;20476;-68
2022/01/11 07:14:47;;;;;;;19.27;6.95;;;;;;;;;;6267416;28;20106;-68
2022/01/11 07:17:50;;;;;;;11.77;5.53;;;;;;;;;;6267333;28;20044;-69
2022/01/11 07:20:56;;;;;;;16.40;6.15;;;;;;;;;;6266855;28;20048;-67
2022/01/11 07:24:03;;;;;;;12.45;6.13;;;;;;;;;;6267178;28;20056;-68
2022/01/11 07:27:09;;;;;;;13.63;5.65;;;;;;;;;;6267514;28;20049;-67
2022/01/11 07:30:14;;;;;;;17.23;6.63;;;;;;;;;;6266407;28;20048;-68
2022/01/11 07:33:24;;;;;;;14.68;6.25;;;;;;;;;;6267026;28;20048;-68
2022/01/11 07:36:28;;;;;;;16.40;6.45;;;;;;;;;;6266095;28;20045;-68
2022/01/11 07:39:36;;;;;;;12.23;5.13;;;;;;;;;;6267029;28;20411;-68
2022/01/11 07:42:40;;;;;;;14.98;6.43;;;;;;;;;;6267079;28;20179;-68
2022/01/11 07:46:07;;;;;;;16.98;6.28;;;;;;;;;;6267985;28;20049;-68
2022/01/11 07:49:19;;;;;;;17.73;6.82;;;;;;;;;;6266635;28;20053;-69
2022/01/11 07:52:26;;;;;;;16.08;6.32;;;;;;;;;;6266582;28;20458;-68
2022/01/11 07:55:32;;;;;;;15.48;6.70;;;;;;;;;;6266386;28;20075;-68
2022/01/11 07:58:36;;;;;;;15.07;6.25;;;;;;;;;;6266166;28;20480;-69
2022/01/11 08:01:41;;;;;;;15.07;7.10;;;;;;;;;;6266811;28;20044;-69
2022/01/11 08:04:48;;;;;;;13.10;6.00;;;;;;;;;;6265649;28;20045;-69
2022/01/11 08:07:51;;;;;;;16.23;6.25;;;;;;;;;;6267658;28;20045;-68
2022/01/11 08:11:01;;;;;;;15.32;6.70;;;;;;;;;;6266108;28;20440;-68
2022/01/11 08:14:05;;;;;;;15.23;6.18;;;;;;;;;;6266193;28;20045;-68
2022/01/11 08:17:12;;;;;;;14.32;6.47;;;;;;;;;;6265691;28;20052;-68
2022/01/11 08:20:16;;;;;;;14.85;6.68;;;;;;;;;;6266202;28;20119;-68
2022/01/11 08:23:21;;;;;;;13.40;6.65;;;;;;;;;;6266583;28;20067;-68
2022/01/11 08:26:24;;;;;;;17.88;6.80;;;;;;;;;;6265242;28;20072;-68
2022/01/11 08:29:27;;;;;;;14.48;6.40;;;;;;;;;;6265689;28;20071;-68
2022/01/11 08:32:36;;;;;;;14.95;7.00;;;;;;;;;;6265807;28;20053;-69
2022/01/11 08:35:40;;;;;;;16.48;7.60;;;;;;;;;;6265892;28;20052;-69
2022/01/11 08:38:47;;;;;;;24.15;7.35;;;;;;;;;;6265235;28;20051;-68
2022/01/11 08:41:51;;;;;;;14.32;6.65;;;;;;;;;;6265297;28;20060;-68
2022/01/11 08:44:54;;;;;;;13.15;6.68;;;;;;;;;;6266067;28;20509;-68
2022/01/11 08:48:03;;;;;;;18.27;7.18;;;;;;;;;;6265980;28;20060;-68
2022/01/11 08:51:15;;;;;;;15.90;7.35;;;;;;;;;;6270821;28;20049;-69
2022/01/11 08:54:24;;;;;;;15.07;7.05;;;;;;;;;;6270838;28;20045;-68
2022/01/11 08:57:31;;;;;;;17.88;7.90;;;;;;;;;;6270878;28;20049;-68
2022/01/11 09:00:34;;;;;;;14.20;6.63;;;;;;;;;;6270158;28;20075;-68
2022/01/11 09:03:44;;;;;;;18.40;6.72;;;;;;;;;;6270342;28;20507;-68
2022/01/11 09:06:47;;;;;;;15.80;7.10;;;;;;;;;;6270848;28;20041;-68
2022/01/11 09:09:54;;;;;;;17.65;7.50;;;;;;;;;;6262333;28;20653;-68
2022/01/11 09:12:59;;;;;;;15.82;7.43;;;;;;;;;;6228897;28;20443;-68
2022/01/11 09:16:02;;;;;;;15.68;7.32;;;;;;;;;;6228856;28;20530;-69
2022/01/11 09:19:08;;;;;;;15.38;6.85;;;;;;;;;;6229286;28;20052;-69
2022/01/11 09:22:14;;;;;;;17.05;7.32;;;;;;;;;;6228087;28;20053;-69
2022/01/11 09:25:19;;;;;;;16.33;8.05;;;;;;;;;;6229084;28;20136;-71
2022/01/11 09:28:29;;;;;;;17.58;8.82;;;;;;;;;;6229250;28;20054;-69
2022/01/11 09:31:34;;;;;;;18.73;8.48;;;;;;;;;;6228188;28;20049;-69
2022/01/11 09:34:42;;;;;;;19.65;7.55;;;;;;;;;;6228572;28;20037;-73
2022/01/11 09:37:52;;;;;;;17.67;7.68;;;;;;;;;;6228473;28;20050;-71
2022/01/11 09:40:58;;;;;;;17.60;7.38;;;;;;;;;;6227488;28;20322;-70
2022/01/11 09:44:03;;;;;;;;;;;;;;;;;;6227952;28;20045;-70
2022/01/11 09:47:08;;;;;;;13.85;5.78;;;;;;;;;;6228142;28;19921;-71
2022/01/11 09:50:19;;;;;;;16.50;7.00;;;;;;;;;;6228427;28;20045;-69
2022/01/11 09:53:33;;;;;;;;;;;;;;;;;;6228771;28;20041;-68
2022/01/11 09:56:39;;;;;;;15.57;5.90;;;;;;;;;;6227863;28;19925;-70
2022/01/11 09:59:48;;;;;;;13.27;6.38;;;;;;;;;;6225799;28;20046;-71
2022/01/11 10:03:18;;;;;;;14.65;6.93;;;;;;;;;;6246042;28;20522;-68
2022/01/11 10:06:34;;;;;;;17.15;6.53;;;;;;;;;;6228047;28;20054;-69
2022/01/11 10:09:42;;;;;;;14.37;6.83;;;;;;;;;;6227564;28;20049;-68
2022/01/11 10:12:49;;;;;;;14.65;6.00;;;;;;;;;;6227630;28;20056;-68
2022/01/11 10:15:55;;;;;;;13.52;6.45;;;;;;;;;;6250083;28;20083;-69
2022/01/11 10:19:00;;;;;;;14.70;6.18;;;;;;;;;;6252051;28;20047;-69
2022/01/11 10:22:07;;;;;;;24.25;9.88;;;;;;;;;;6250731;28;20045;-69
2022/01/11 10:25:11;;;;;;;11.18;5.57;;;;;;;;;;6251017;28;20045;-70
2022/01/11 10:28:15;;;;;;;14.27;5.75;;;;;;;;;;6251839;28;20644;-69
2022/01/11 10:31:33;;;;;;;11.88;5.15;;;;;;;;;;6251409;28;20510;-69
2022/01/11 10:34:36;;;;;;;12.88;5.50;;;;;;;;;;6252057;28;20037;-69
2022/01/11 10:37:42;;;;;;;14.85;6.03;;;;;;;;;;6252228;28;20045;-69
2022/01/11 10:40:46;;;;;;;14.43;5.93;;;;;;;;;;6268025;28;20064;-69
2022/01/11 10:43:51;;;;;;;14.10;6.07;;;;;;;;;;6251431;28;20137;-70
2022/01/11 10:46:58;;;;;;;13.73;5.75;;;;;;;;;;6251584;28;20048;-68
2022/01/11 10:50:05;;;;;;;14.30;5.40;;;;;;;;;;6251782;28;20048;-69
2022/01/11 10:53:14;;;;;;;13.95;5.68;;;;;;;;;;6268627;28;20052;-69
2022/01/11 10:56:18;;;;;;;13.38;5.38;;;;;;;;;;6250022;28;20041;-70
2022/01/11 10:59:27;;;;;;;12.00;5.85;;;;;;;;;;6249128;28;20114;-70
2022/01/11 11:02:30;;;;;;;11.25;5.75;;;;;;;;;;6250762;28;20488;-70
2022/01/11 11:05:40;;;;;;;11.27;5.78;;;;;;;;;;6250820;28;20060;-69
2022/01/11 11:08:54;;;;;;;13.43;5.93;;;;;;;;;;6250182;28;20328;-69
2022/01/11 11:12:16;;;;;;;13.02;5.57;;;;;;;;;;6249163;28;20037;-69
2022/01/11 11:15:34;;;;;;;13.68;6.50;;;;;;;;;;6250722;28;20053;-69
2022/01/11 11:18:47;;;;;;;13.25;5.95;;;;;;;;;;6234508;28;20107;-68
2022/01/11 11:21:55;;;;;;;13.32;5.68;;;;;;;;;;6247607;28;20480;-69
2022/01/11 11:25:00;;;;;;;14.57;6.55;;;;;;;;;;6248255;28;20048;-68
2022/01/11 11:28:03;;;;;;;13.43;6.13;;;;;;;;;;6264154;28;20132;-68
2022/01/11 11:31:08;;;;;;;14.18;6.30;;;;;;;;;;6246953;28;20045;-68
2022/01/11 11:34:12;;;;;;;12.27;6.30;;;;;;;;;;6265453;28;20187;-68
2022/01/11 11:37:23;;;;;;;12.77;6.03;;;;;;;;;;6265354;28;20063;-68
2022/01/11 11:40:31;;;;;;;15.98;6.30;;;;;;;;;;6248143;28;20041;-69
2022/01/11 11:43:34;;;;;;;12.80;6.20;;;;;;;;;;6267935;28;20064;-69
2022/01/11 11:46:47;;;;;;;13.05;6.13;;;;;;;;;;6268464;28;20055;-69
2022/01/11 11:49:52;;;;;;;13.93;6.35;;;;;;;;;;6267397;28;20170;-69
2022/01/11 11:52:55;;;;;;;13.48;6.32;;;;;;;;;;6267729;28;20074;-68
2022/01/11 11:56:15;;;;;;;13.77;6.00;;;;;;;;;;6267930;28;20049;-68
2022/01/11 11:59:18;;;;;;;12.80;5.90;;;;;;;;;;6250209;28;20049;-68
2022/01/11 12:02:31;;;;;;;12.50;5.35;;;;;;;;;;6267169;28;20044;-69
2022/01/11 12:05:36;;;;;;;14.65;6.60;;;;;;;;;;6267641;28;20128;-68
2022/01/11 12:08:42;;;;;;;11.52;5.45;;;;;;;;;;6267987;28;20059;-68
2022/01/11 12:11:52;;;;;;;13.50;6.30;;;;;;;;;;6267488;28;20056;-68
2022/01/11 12:14:55;;;;;;;11.82;5.22;;;;;;;;;;6249280;28;20060;-68
2022/01/11 12:18:14;;;;;;;11.25;5.35;;;;;;;;;;6267268;28;20064;-68
2022/01/11 12:21:17;;;;;;;13.15;5.75;;;;;;;;;;6267879;28;20057;-68
2022/01/11 12:24:34;;;;;;;12.57;6.00;;;;;;;;;;6266083;28;20127;-69
2022/01/11 12:27:51;;;;;;;12.65;5.72;;;;;;;;;;6249095;28;20049;-68
2022/01/11 12:31:09;;;;;;;12.10;5.75;;;;;;;;;;6248514;28;20076;-67
2022/01/11 12:34:18;;;;;;;11.63;5.75;;;;;;;;;;6249713;28;20475;-68
2022/01/11 12:37:32;;;;;;;15.25;6.00;;;;;;;;;;6266395;28;20527;-69
2022/01/11 12:40:40;;;;;;;14.00;5.82;;;;;;;;;;6266691;28;20090;-68
2022/01/11 12:43:48;;;;;;;12.52;5.82;;;;;;;;;;6266795;28;20041;-68
2022/01/11 12:46:53;;;;;;;11.98;5.97;;;;;;;;;;6249248;28;20044;-67
2022/01/11 12:50:04;;;;;;;12.70;5.43;;;;;;;;;;6248370;28;20055;-67
2022/01/11 12:53:07;;;;;;;13.65;6.38;;;;;;;;;;6248826;28;20093;-68
2022/01/11 12:56:10;;;;;;;13.50;6.30;;;;;;;;;;6267562;28;20045;-69
2022/01/11 12:59:13;;;;;;;16.15;6.97;;;;;;;;;;6266249;28;20041;-69
2022/01/11 13:02:19;;;;;;;17.90;5.75;;;;;;;;;;6248532;28;20053;-69
2022/01/11 13:05:27;;;;;;;11.55;6.07;;;;;;;;;;6266693;28;20045;-69
2022/01/11 13:08:36;;;;;;;13.55;5.82;;;;;;;;;;6267283;28;20239;-68
2022/01/11 13:11:47;;;;;;;13.00;6.20;;;;;;;;;;6265900;28;20048;-69
2022/01/11 13:14:57;;;;;;;15.75;6.45;;;;;;;;;;6266425;28;20538;-69
2022/01/11 13:18:07;;;;;;;13.02;6.22;;;;;;;;;;6266886;28;20053;-69
2022/01/11 13:21:30;;;;;;;11.15;5.22;;;;;;;;;;6266935;28;20175;-68
2022/01/11 13:24:36;;;;;;;13.50;5.72;;;;;;;;;;6265886;28;20098;-68
2022/01/11 13:27:51;;;;;;;13.13;6.15;;;;;;;;;;6248668;28;20041;-69
2022/01/11 13:30:54;;;;;;;13.30;5.95;;;;;;;;;;6266732;28;20115;-68
2022/01/11 13:34:00;;;;;;;12.20;5.30;;;;;;;;;;6266205;28;20037;-69
2022/01/11 13:37:04;;;;;;;9.55;4.88;;;;;;;;;;6269230;28;20045;-68
2022/01/11 13:40:11;;;;;;;16.17;5.63;;;;;;;;;;6270997;28;20122;-68
2022/01/11 13:43:16;;;;;;;17.20;5.97;;;;;;;;;;6271960;28;20057;-68
2022/01/11 13:46:21;;;;;;;12.47;5.17;;;;;;;;;;6271132;28;20041;-68
2022/01/11 13:49:27;;;;;;;11.20;5.25;;;;;;;;;;6270777;28;20541;-68
2022/01/11 13:52:31;;;;;;;13.48;6.18;;;;;;;;;;6271336;28;20059;-69
2022/01/11 13:55:34;;;;;;;13.85;5.70;;;;;;;;;;6252519;28;20068;-68
2022/01/11 13:58:38;;;;;;;16.33;7.85;;;;;;;;;;6252305;28;20049;-68
2022/01/11 14:01:43;;;;;;;11.52;5.10;;;;;;;;;;6270841;28;20041;-69
2022/01/11 14:04:50;;;;;;;11.60;5.93;;;;;;;;;;6270997;28;20049;-67
2022/01/11 14:07:59;;;;;;;10.52;5.28;;;;;;;;;;6269664;28;20094;-69
2022/01/11 14:11:07;;;;;;;12.02;5.22;;;;;;;;;;6252345;28;20124;-69
2022/01/11 14:14:10;;;;;;;10.73;4.55;;;;;;;;;;6253234;28;20044;-69
2022/01/11 14:17:36;;;;;;;10.55;5.47;;;;;;;;;;6270607;28;20043;-69
2022/01/11 14:20:41;;;;;;;10.43;5.00;;;;;;;;;;6251729;28;20053;-69
2022/01/11 14:23:51;;;;;;;9.25;4.32;;;;;;;;;;6270088;28;20033;-69
2022/01/11 14:26:54;;;;;;;8.38;4.60;;;;;;;;;;6270412;28;20095;-69
2022/01/11 14:29:58;;;;;;;10.43;4.82;;;;;;;;;;6269316;28;20063;-69
2022/01/11 14:33:01;;;;;;;13.10;4.60;;;;;;;;;;6269569;28;20048;-69
2022/01/11 14:36:06;;;;;;;8.02;3.97;;;;;;;;;;6270057;28;20506;-69
2022/01/11 14:39:11;;;;;;;8.05;4.18;;;;;;;;;;6269912;28;20090;-69
2022/01/11 14:42:14;;;;;;;8.00;4.10;;;;;;;;;;6268810;28;20494;-69
2022/01/11 14:45:24;;;;;;;8.88;4.22;;;;;;;;;;6268890;28;20359;-68
2022/01/11 14:48:30;;;;;;;13.00;4.57;;;;;;;;;;6269993;28;20479;-68
2022/01/11 14:51:40;;;;;;;8.95;4.28;;;;;;;;;;6268913;28;20056;-67
2022/01/11 14:54:51;;;;;;;7.30;3.40;;;;;;;;;;6251030;28;20059;-68
2022/01/11 14:58:01;;;;;;;13.02;4.50;;;;;;;;;;6251673;28;20060;-68
2022/01/11 15:01:06;;;;;;;10.55;4.20;;;;;;;;;;6269613;28;20051;-68
2022/01/11 15:04:10;;;;;;;7.40;3.88;;;;;;;;;;6250644;28;20052;-68
2022/01/11 15:07:15;;;;;;;7.82;4.10;;;;;;;;;;6268944;28;20404;-68
2022/01/11 15:10:23;;;;;;;7.80;3.70;;;;;;;;;;6251564;28;20102;-68
2022/01/11 15:13:26;;;;;;;9.90;3.88;;;;;;;;;;6268715;28;20044;-68
2022/01/11 15:16:29;;;;;;;8.52;4.13;;;;;;;;;;6250407;28;20045;-69
2022/01/11 15:19:32;;;;;;;8.73;3.90;;;;;;;;;;6250774;28;20568;-69
2022/01/11 15:22:35;;;;;;;10.00;3.95;;;;;;;;;;6251194;28;20045;-69
2022/01/11 15:25:42;;;;;;;9.15;3.80;;;;;;;;;;6249989;28;20072;-69
2022/01/11 15:28:53;;;;;;;6.78;3.33;;;;;;;;;;6268458;28;20052;-69
2022/01/11 15:31:59;;;;;;;9.70;3.85;;;;;;;;;;6250928;28;20049;-69
2022/01/11 15:35:02;;;;;;;11.10;4.20;;;;;;;;;;6268060;28;20045;-69
2022/01/11 15:38:05;;;;;;;9.55;3.92;;;;;;;;;;6267905;28;20530;-70
2022/01/11 15:41:11;;;;;;;;;;;;;;;;;;6268630;28;20072;-68
2022/01/11 15:44:16;;;;;;;17.08;4.47;;;;;;;;;;6268707;28;19920;-69
2022/01/11 15:47:19;;;;;;;8.77;4.05;;;;;;;;;;6267418;28;20090;-69
2022/01/11 15:50:21;;;;;;;9.63;3.83;;;;;;;;;;6267802;28;20139;-69
2022/01/11 15:53:27;;;;;;;7.28;3.25;;;;;;;;;;6268320;28;20041;-68
2022/01/11 15:56:30;;;;;;;10.98;3.72;;;;;;;;;;6267412;28;20045;-69
2022/01/11 15:59:34;;;;;;;14.80;4.45;;;;;;;;;;6248923;28;20045;-68
2022/01/11 16:02:37;;;;;;;10.13;3.90;;;;;;;;;;6250100;28;20507;-69
2022/01/11 16:05:40;;;;;;;9.85;4.07;;;;;;;;;;6268162;28;20045;-68
2022/01/11 16:08:43;;;;;;;15.57;5.75;;;;;;;;;;6248944;28;20506;-67
2022/01/11 16:11:46;;;;;;;20.85;7.63;;;;;;;;;;6249543;28;20049;-68
2022/01/11 16:14:51;;;;;;;12.65;4.32;;;;;;;;;;6267910;28;20112;-67
2022/01/11 16:17:54;;;;;;;8.55;3.90;;;;;;;;;;6267053;28;20045;-68
2022/01/11 16:20:57;;;;;;;12.52;4.28;;;;;;;;;;6267164;28;20049;-68
2022/01/11 16:24:00;;;;;;;8.60;4.05;;;;;;;;;;6268016;28;20041;-69
2022/01/11 16:27:03;;;;;;;10.13;4.22;;;;;;;;;;6267127;28;20135;-68
2022/01/11 16:30:25;;;;;;;10.75;5.00;;;;;;;;;;6266126;28;20063;-68
2022/01/11 16:33:29;;;;;;;10.48;4.60;;;;;;;;;;6262128;28;20180;-67
2022/01/11 16:36:32;;;;;;;14.68;5.20;;;;;;;;;;6266977;28;20126;-71
2022/01/11 16:39:42;;;;;;;12.30;5.30;;;;;;;;;;6248796;28;20044;-70
2022/01/11 16:42:48;;;;;;;14.88;4.97;;;;;;;;;;6266712;28;20072;-68
2022/01/11 16:45:52;;;;;;;18.13;6.32;;;;;;;;;;6267997;28;20048;-68
2022/01/11 16:48:56;;;;;;;16.38;4.68;;;;;;;;;;6260157;28;20476;-68
2022/01/11 16:51:59;;;;;;;11.23;4.65;;;;;;;;;;6252125;28;20048;-68
2022/01/11 16:55:02;;;;;;;16.73;5.47;;;;;;;;;;6254643;28;20491;-69
2022/01/11 16:58:05;;;;;;;10.63;4.28;;;;;;;;;;6236456;28;20048;-70
2022/01/11 17:01:08;;;;;;;12.88;4.72;;;;;;;;;;6235619;28;20040;-69
2022/01/11 17:04:16;;;;;;;10.10;4.18;;;;;;;;;;6236775;28;20507;-68
2022/01/11 17:07:22;;;;;;;11.88;4.43;;;;;;;;;;6232456;28;20467;-68
2022/01/11 17:10:25;;;;;;;16.45;4.13;;;;;;;;;;6241149;28;20033;-69
2022/01/11 17:13:28;;;;;;;10.88;5.25;;;;;;;;;;6242036;28;20052;-68
2022/01/11 17:16:31;;;;;;;51.80;21.77;;;;;;;;;;6256131;28;20056;-69
2022/01/11 17:19:35;;;;;;;12.60;5.10;;;;;;;;;;6252119;28;20049;-68
2022/01/11 17:22:42;;;;;;;10.43;3.90;;;;;;;;;;6251507;28;20042;-69
2022/01/11 17:25:45;;;;;;;8.13;3.70;;;;;;;;;;6258722;28;20079;-69
2022/01/11 17:28:48;;;;;;;6.57;3.72;;;;;;;;;;6258641;28;20191;-68
2022/01/11 17:31:51;;;;;;;11.93;4.13;;;;;;;;;;6259602;28;20041;-70
2022/01/11 17:34:58;;;;;;;7.47;4.20;;;;;;;;;;6256752;28;20041;-68
2022/01/11 17:38:01;;;;;;;8.90;4.35;;;;;;;;;;6257199;28;20099;-70
2022/01/11 17:41:06;;;;;;;12.70;4.27;;;;;;;;;;6240555;28;20190;-68
2022/01/11 17:44:09;;;;;;;6.88;3.63;;;;;;;;;;6257307;28;20041;-70
2022/01/11 17:47:12;;;;;;;39.30;5.22;;;;;;;;;;6255242;28;20041;-70
2022/01/11 17:50:17;;;;;;;9.00;3.58;;;;;;;;;;6239073;28;20046;-71
2022/01/11 17:53:20;;;;;;;8.17;3.60;;;;;;;;;;6245297;28;20049;-68
2022/01/11 17:56:24;;;;;;;8.25;3.55;;;;;;;;;;6263867;28;20048;-68
2022/01/11 17:59:27;;;;;;;6.32;3.78;;;;;;;;;;6267501;28;20076;-68
2022/01/11 18:02:30;;;;;;;6.63;3.33;;;;;;;;;;6270784;28;20446;-68
2022/01/11 18:05:34;;;;;;;7.72;3.80;;;;;;;;;;6269891;28;20403;-70
2022/01/11 18:08:41;;;;;;;6.93;3.20;;;;;;;;;;6269293;28;20037;-68
2022/01/11 18:11:44;;;;;;;11.35;4.00;;;;;;;;;;6271143;28;20094;-69
2022/01/11 18:14:52;;;;;;;8.40;3.88;;;;;;;;;;6269881;28;20076;-69
2022/01/11 18:17:58;;;;;;;10.18;4.65;;;;;;;;;;6270101;28;20037;-68
2022/01/11 18:21:03;;;;;;;9.40;4.10;;;;;;;;;;6268765;28;20045;-68
2022/01/11 18:24:06;;;;;;;8.32;3.97;;;;;;;;;;6269445;28;20052;-70
2022/01/11 18:27:09;;;;;;;11.13;4.28;;;;;;;;;;6269598;28;20060;-72